sensor_id;sensor_type;location;lat;lon;timestamp;P1;durP1;ratioP1;P2;durP2;ratioP2
7729;SDS011;3908;52.310;7.230;2022-12-22T00:01:52;28.17;;;17.67;;
7729;SDS011;3908;52.310;7.230;2022-12-22T00:04:56;29.77;;;17.80;;
7729;SDS011;3908;52.310;7.230;2022-12-22T00:08:01;27.47;;;17.63;;
7729;SDS011;3908;52.310;7.230;2022-12-22T00:11:08;28.77;;;17.30;;
7729;SDS011;3908;52.310;7.230;2022-12-22T00:14:14;30.00;;;17.23;;
7729;SDS011;3908;52.310;7.230;2022-12-22T00:17:21;25.87;;;17.13;;
7729;SDS011;3908;52.310;7.230;2022-12-22T00:20:27;31.67;;;17.30;;
7729;SDS011;3908;52.310;7.230;2022-12-22T00:23:33;26.77;;;16.63;;
7729;SDS011;3908;52.310;7.230;2022-12-22T00:26:38;24.47;;;15.50;;
7729;SDS011;3908;52.310;7.230;2022-12-22T00:29:43;24.10;;;15.67;;
7729;SDS011;3908;52.310;7.230;2022-12-22T00:32:49;26.47;;;16.53;;
7729;SDS011;3908;52.310;7.230;2022-12-22T00:35:53;24.73;;;15.67;;
7729;SDS011;3908;52.310;7.230;2022-12-22T00:38:59;25.00;;;15.07;;
7729;SDS011;3908;52.310;7.230;2022-12-22T00:42:04;21.67;;;14.53;;
7729;SDS011;3908;52.310;7.230;2022-12-22T00:45:08;30.43;;;15.97;;
7729;SDS011;3908;52.310;7.230;2022-12-22T00:48:17;24.17;;;15.93;;
7729;SDS011;3908;52.310;7.230;2022-12-22T00:51:25;26.63;;;15.90;;
7729;SDS011;3908;52.310;7.230;2022-12-22T00:54:32;27.43;;;15.93;;
7729;SDS011;3908;52.310;7.230;2022-12-22T00:57:36;26.57;;;16.33;;
7729;SDS011;3908;52.310;7.230;2022-12-22T01:00:41;24.33;;;15.60;;
7729;SDS011;3908;52.310;7.230;2022-12-22T01:03:46;27.53;;;17.23;;
7729;SDS011;3908;52.310;7.230;2022-12-22T01:06:50;24.93;;;15.87;;
7729;SDS011;3908;52.310;7.230;2022-12-22T01:09:56;28.13;;;16.23;;
7729;SDS011;3908;52.310;7.230;2022-12-22T01:13:01;27.57;;;16.70;;
7729;SDS011;3908;52.310;7.230;2022-12-22T01:16:07;23.50;;;15.53;;
7729;SDS011;3908;52.310;7.230;2022-12-22T01:19:13;26.50;;;16.73;;
7729;SDS011;3908;52.310;7.230;2022-12-22T01:22:17;23.77;;;15.77;;
7729;SDS011;3908;52.310;7.230;2022-12-22T01:25:26;20.80;;;15.07;;
7729;SDS011;3908;52.310;7.230;2022-12-22T01:28:30;25.40;;;16.63;;
7729;SDS011;3908;52.310;7.230;2022-12-22T01:31:34;21.07;;;14.60;;
7729;SDS011;3908;52.310;7.230;2022-12-22T01:34:39;21.73;;;14.73;;
7729;SDS011;3908;52.310;7.230;2022-12-22T01:37:44;21.13;;;14.87;;
7729;SDS011;3908;52.310;7.230;2022-12-22T01:40:50;25.60;;;15.33;;
7729;SDS011;3908;52.310;7.230;2022-12-22T01:43:56;21.00;;;14.00;;
7729;SDS011;3908;52.310;7.230;2022-12-22T01:50:34;23.90;;;15.30;;
7729;SDS011;3908;52.310;7.230;2022-12-22T01:53:39;24.53;;;14.90;;
7729;SDS011;3908;52.310;7.230;2022-12-22T01:56:46;22.50;;;14.80;;
7729;SDS011;3908;52.310;7.230;2022-12-22T01:59:51;26.40;;;15.67;;
7729;SDS011;3908;52.310;7.230;2022-12-22T02:02:56;24.07;;;15.30;;
7729;SDS011;3908;52.310;7.230;2022-12-22T02:06:04;28.40;;;16.73;;
7729;SDS011;3908;52.310;7.230;2022-12-22T02:09:22;22.37;;;15.90;;
7729;SDS011;3908;52.310;7.230;2022-12-22T02:12:37;25.33;;;15.40;;
7729;SDS011;3908;52.310;7.230;2022-12-22T02:15:48;31.07;;;16.03;;
7729;SDS011;3908;52.310;7.230;2022-12-22T02:18:56;28.23;;;16.43;;
7729;SDS011;3908;52.310;7.230;2022-12-22T02:22:08;22.40;;;16.03;;
7729;SDS011;3908;52.310;7.230;2022-12-22T02:25:22;26.17;;;16.80;;
7729;SDS011;3908;52.310;7.230;2022-12-22T02:28:33;25.13;;;16.40;;
7729;SDS011;3908;52.310;7.230;2022-12-22T02:31:38;24.80;;;15.47;;
7729;SDS011;3908;52.310;7.230;2022-12-22T02:34:43;23.77;;;15.80;;
7729;SDS011;3908;52.310;7.230;2022-12-22T02:37:49;26.70;;;15.97;;
7729;SDS011;3908;52.310;7.230;2022-12-22T02:41:08;23.07;;;15.60;;
7729;SDS011;3908;52.310;7.230;2022-12-22T02:44:23;24.13;;;16.03;;
7729;SDS011;3908;52.310;7.230;2022-12-22T02:47:36;25.40;;;17.00;;
7729;SDS011;3908;52.310;7.230;2022-12-22T02:50:48;25.30;;;16.37;;
7729;SDS011;3908;52.310;7.230;2022-12-22T02:53:58;24.83;;;16.33;;
7729;SDS011;3908;52.310;7.230;2022-12-22T02:57:04;24.27;;;15.53;;
7729;SDS011;3908;52.310;7.230;2022-12-22T03:00:12;24.83;;;16.37;;
7729;SDS011;3908;52.310;7.230;2022-12-22T03:03:17;25.20;;;16.20;;
7729;SDS011;3908;52.310;7.230;2022-12-22T03:06:21;26.30;;;17.10;;
7729;SDS011;3908;52.310;7.230;2022-12-22T03:09:25;30.03;;;17.63;;
7729;SDS011;3908;52.310;7.230;2022-12-22T03:12:30;25.87;;;16.63;;
7729;SDS011;3908;52.310;7.230;2022-12-22T03:15:35;23.13;;;16.10;;
7729;SDS011;3908;52.310;7.230;2022-12-22T03:18:40;26.80;;;17.10;;
7729;SDS011;3908;52.310;7.230;2022-12-22T03:21:44;24.60;;;15.73;;
7729;SDS011;3908;52.310;7.230;2022-12-22T03:24:48;27.70;;;17.43;;
7729;SDS011;3908;52.310;7.230;2022-12-22T03:27:53;26.27;;;16.40;;
7729;SDS011;3908;52.310;7.230;2022-12-22T03:30:41;29.23;;;17.00;;
7729;SDS011;3908;52.310;7.230;2022-12-22T03:33:29;29.70;;;16.93;;
7729;SDS011;3908;52.310;7.230;2022-12-22T03:36:16;28.17;;;16.97;;
7729;SDS011;3908;52.310;7.230;2022-12-22T03:39:03;26.97;;;16.23;;
7729;SDS011;3908;52.310;7.230;2022-12-22T03:41:50;34.30;;;19.20;;
7729;SDS011;3908;52.310;7.230;2022-12-22T03:44:55;29.07;;;18.43;;
7729;SDS011;3908;52.310;7.230;2022-12-22T03:48:12;27.97;;;17.37;;
7729;SDS011;3908;52.310;7.230;2022-12-22T03:50:59;30.30;;;17.57;;
7729;SDS011;3908;52.310;7.230;2022-12-22T03:53:46;25.87;;;16.17;;
7729;SDS011;3908;52.310;7.230;2022-12-22T03:56:34;28.00;;;17.57;;
7729;SDS011;3908;52.310;7.230;2022-12-22T03:59:21;32.47;;;17.93;;
7729;SDS011;3908;52.310;7.230;2022-12-22T04:02:08;29.10;;;17.00;;
7729;SDS011;3908;52.310;7.230;2022-12-22T04:04:57;33.67;;;19.37;;
7729;SDS011;3908;52.310;7.230;2022-12-22T04:07:44;29.73;;;17.27;;
7729;SDS011;3908;52.310;7.230;2022-12-22T04:10:31;32.23;;;17.23;;
7729;SDS011;3908;52.310;7.230;2022-12-22T04:13:36;32.40;;;17.63;;
7729;SDS011;3908;52.310;7.230;2022-12-22T04:16:23;30.87;;;17.70;;
7729;SDS011;3908;52.310;7.230;2022-12-22T04:19:10;34.17;;;18.10;;
7729;SDS011;3908;52.310;7.230;2022-12-22T04:21:59;30.87;;;18.67;;
7729;SDS011;3908;52.310;7.230;2022-12-22T04:24:46;30.07;;;18.20;;
7729;SDS011;3908;52.310;7.230;2022-12-22T04:27:33;30.80;;;17.37;;
7729;SDS011;3908;52.310;7.230;2022-12-22T04:30:21;32.27;;;17.50;;
7729;SDS011;3908;52.310;7.230;2022-12-22T04:33:08;31.43;;;18.60;;
7729;SDS011;3908;52.310;7.230;2022-12-22T04:35:55;31.33;;;17.23;;
7729;SDS011;3908;52.310;7.230;2022-12-22T04:38:44;33.27;;;18.20;;
7729;SDS011;3908;52.310;7.230;2022-12-22T04:41:31;32.27;;;18.60;;
7729;SDS011;3908;52.310;7.230;2022-12-22T04:44:18;37.07;;;20.07;;
7729;SDS011;3908;52.310;7.230;2022-12-22T04:47:05;30.90;;;16.70;;
7729;SDS011;3908;52.310;7.230;2022-12-22T04:49:52;33.43;;;16.63;;
7729;SDS011;3908;52.310;7.230;2022-12-22T04:52:40;28.80;;;17.33;;
7729;SDS011;3908;52.310;7.230;2022-12-22T04:55:28;30.70;;;17.97;;
7729;SDS011;3908;52.310;7.230;2022-12-22T04:58:15;32.27;;;16.03;;
7729;SDS011;3908;52.310;7.230;2022-12-22T05:01:08;35.67;;;17.80;;
7729;SDS011;3908;52.310;7.230;2022-12-22T05:03:57;33.77;;;18.77;;
7729;SDS011;3908;52.310;7.230;2022-12-22T05:06:44;31.13;;;18.10;;
7729;SDS011;3908;52.310;7.230;2022-12-22T05:09:31;34.60;;;18.43;;
7729;SDS011;3908;52.310;7.230;2022-12-22T05:12:19;33.97;;;18.70;;
7729;SDS011;3908;52.310;7.230;2022-12-22T05:15:25;36.83;;;20.40;;
7729;SDS011;3908;52.310;7.230;2022-12-22T05:18:13;41.17;;;20.10;;
7729;SDS011;3908;52.310;7.230;2022-12-22T05:21:01;33.73;;;18.70;;
7729;SDS011;3908;52.310;7.230;2022-12-22T05:23:49;34.83;;;19.23;;
7729;SDS011;3908;52.310;7.230;2022-12-22T05:26:37;32.33;;;18.20;;
7729;SDS011;3908;52.310;7.230;2022-12-22T05:29:25;33.77;;;18.60;;
7729;SDS011;3908;52.310;7.230;2022-12-22T05:32:12;31.53;;;17.67;;
7729;SDS011;3908;52.310;7.230;2022-12-22T05:35:00;39.73;;;19.13;;
7729;SDS011;3908;52.310;7.230;2022-12-22T05:37:47;39.33;;;20.57;;
7729;SDS011;3908;52.310;7.230;2022-12-22T05:40:34;33.33;;;19.00;;
7729;SDS011;3908;52.310;7.230;2022-12-22T05:43:21;34.33;;;19.10;;
7729;SDS011;3908;52.310;7.230;2022-12-22T05:46:09;33.90;;;18.90;;
7729;SDS011;3908;52.310;7.230;2022-12-22T05:48:59;33.43;;;17.30;;
7729;SDS011;3908;52.310;7.230;2022-12-22T05:51:46;30.43;;;17.30;;
7729;SDS011;3908;52.310;7.230;2022-12-22T05:54:33;37.20;;;19.70;;
7729;SDS011;3908;52.310;7.230;2022-12-22T05:57:20;33.30;;;19.43;;
7729;SDS011;3908;52.310;7.230;2022-12-22T06:00:08;39.23;;;20.53;;
7729;SDS011;3908;52.310;7.230;2022-12-22T06:02:58;38.03;;;21.03;;
7729;SDS011;3908;52.310;7.230;2022-12-22T06:05:48;42.63;;;22.40;;
7729;SDS011;3908;52.310;7.230;2022-12-22T06:08:35;38.03;;;19.53;;
7729;SDS011;3908;52.310;7.230;2022-12-22T06:11:22;39.77;;;21.13;;
7729;SDS011;3908;52.310;7.230;2022-12-22T06:14:09;35.40;;;19.23;;
7729;SDS011;3908;52.310;7.230;2022-12-22T06:16:56;38.27;;;20.40;;
7729;SDS011;3908;52.310;7.230;2022-12-22T06:19:45;37.17;;;18.70;;
7729;SDS011;3908;52.310;7.230;2022-12-22T06:22:32;43.13;;;19.50;;
7729;SDS011;3908;52.310;7.230;2022-12-22T06:25:19;39.53;;;19.93;;
7729;SDS011;3908;52.310;7.230;2022-12-22T06:28:06;37.53;;;20.83;;
7729;SDS011;3908;52.310;7.230;2022-12-22T06:30:53;45.30;;;21.43;;
7729;SDS011;3908;52.310;7.230;2022-12-22T06:33:41;43.27;;;22.33;;
7729;SDS011;3908;52.310;7.230;2022-12-22T06:36:31;41.03;;;21.00;;
7729;SDS011;3908;52.310;7.230;2022-12-22T06:39:19;42.80;;;23.83;;
7729;SDS011;3908;52.310;7.230;2022-12-22T06:42:06;37.83;;;21.20;;
7729;SDS011;3908;52.310;7.230;2022-12-22T06:45:12;36.90;;;19.13;;
7729;SDS011;3908;52.310;7.230;2022-12-22T06:48:03;34.47;;;19.43;;
7729;SDS011;3908;52.310;7.230;2022-12-22T06:50:51;37.40;;;20.33;;
7729;SDS011;3908;52.310;7.230;2022-12-22T06:53:46;38.30;;;19.53;;
7729;SDS011;3908;52.310;7.230;2022-12-22T06:56:33;43.20;;;18.93;;
7729;SDS011;3908;52.310;7.230;2022-12-22T06:59:20;38.37;;;19.07;;
7729;SDS011;3908;52.310;7.230;2022-12-22T07:02:08;39.57;;;19.03;;
7729;SDS011;3908;52.310;7.230;2022-12-22T07:04:56;39.73;;;20.43;;
7729;SDS011;3908;52.310;7.230;2022-12-22T07:07:43;33.90;;;20.47;;
7729;SDS011;3908;52.310;7.230;2022-12-22T07:10:31;43.60;;;21.77;;
7729;SDS011;3908;52.310;7.230;2022-12-22T07:13:35;43.40;;;20.20;;
7729;SDS011;3908;52.310;7.230;2022-12-22T07:16:23;38.97;;;20.20;;
7729;SDS011;3908;52.310;7.230;2022-12-22T07:19:13;45.50;;;22.27;;
7729;SDS011;3908;52.310;7.230;2022-12-22T07:22:00;39.37;;;20.87;;
7729;SDS011;3908;52.310;7.230;2022-12-22T07:24:47;64.67;;;23.43;;
7729;SDS011;3908;52.310;7.230;2022-12-22T07:27:35;49.00;;;21.67;;
7729;SDS011;3908;52.310;7.230;2022-12-22T07:30:22;80.23;;;26.50;;
7729;SDS011;3908;52.310;7.230;2022-12-22T07:33:09;156.67;;;28.93;;
7729;SDS011;3908;52.310;7.230;2022-12-22T07:36:05;45.97;;;20.90;;
7729;SDS011;3908;52.310;7.230;2022-12-22T07:38:53;49.73;;;21.40;;
7729;SDS011;3908;52.310;7.230;2022-12-22T07:41:40;70.77;;;22.90;;
7729;SDS011;3908;52.310;7.230;2022-12-22T07:44:45;42.03;;;20.37;;
7729;SDS011;3908;52.310;7.230;2022-12-22T07:47:32;47.23;;;21.33;;
7729;SDS011;3908;52.310;7.230;2022-12-22T07:50:19;46.00;;;20.13;;
7729;SDS011;3908;52.310;7.230;2022-12-22T07:53:12;51.80;;;19.00;;
7729;SDS011;3908;52.310;7.230;2022-12-22T07:56:02;49.53;;;21.13;;
7729;SDS011;3908;52.310;7.230;2022-12-22T07:58:50;48.07;;;19.23;;
7729;SDS011;3908;52.310;7.230;2022-12-22T08:01:38;46.07;;;19.23;;
7729;SDS011;3908;52.310;7.230;2022-12-22T08:04:26;48.97;;;18.23;;
7729;SDS011;3908;52.310;7.230;2022-12-22T08:07:15;37.97;;;17.63;;
7729;SDS011;3908;52.310;7.230;2022-12-22T08:10:02;45.83;;;17.50;;
7729;SDS011;3908;52.310;7.230;2022-12-22T08:12:49;39.17;;;16.90;;
7729;SDS011;3908;52.310;7.230;2022-12-22T08:15:36;35.97;;;15.77;;
7729;SDS011;3908;52.310;7.230;2022-12-22T08:18:25;39.07;;;17.00;;
7729;SDS011;3908;52.310;7.230;2022-12-22T08:21:12;31.07;;;14.37;;
7729;SDS011;3908;52.310;7.230;2022-12-22T08:23:59;38.07;;;16.07;;
7729;SDS011;3908;52.310;7.230;2022-12-22T08:26:47;35.77;;;15.37;;
7729;SDS011;3908;52.310;7.230;2022-12-22T08:29:39;31.30;;;15.30;;
7729;SDS011;3908;52.310;7.230;2022-12-22T08:32:29;34.00;;;14.90;;
7729;SDS011;3908;52.310;7.230;2022-12-22T08:35:18;36.90;;;15.17;;
7729;SDS011;3908;52.310;7.230;2022-12-22T08:38:09;43.23;;;21.83;;
7729;SDS011;3908;52.310;7.230;2022-12-22T08:40:58;36.50;;;16.13;;
7729;SDS011;3908;52.310;7.230;2022-12-22T08:43:46;37.30;;;16.53;;
7729;SDS011;3908;52.310;7.230;2022-12-22T08:46:33;36.37;;;17.10;;
7729;SDS011;3908;52.310;7.230;2022-12-22T08:49:20;37.57;;;16.00;;
7729;SDS011;3908;52.310;7.230;2022-12-22T08:52:10;36.40;;;16.83;;
7729;SDS011;3908;52.310;7.230;2022-12-22T08:54:57;35.40;;;15.73;;
7729;SDS011;3908;52.310;7.230;2022-12-22T08:57:47;39.63;;;18.27;;
7729;SDS011;3908;52.310;7.230;2022-12-22T09:00:35;30.43;;;14.27;;
7729;SDS011;3908;52.310;7.230;2022-12-22T09:03:22;30.13;;;13.67;;
7729;SDS011;3908;52.310;7.230;2022-12-22T09:06:10;31.87;;;14.60;;
7729;SDS011;3908;52.310;7.230;2022-12-22T09:09:01;26.07;;;13.10;;
7729;SDS011;3908;52.310;7.230;2022-12-22T09:11:49;35.30;;;16.57;;
7729;SDS011;3908;52.310;7.230;2022-12-22T09:14:36;30.77;;;14.97;;
7729;SDS011;3908;52.310;7.230;2022-12-22T09:17:25;36.87;;;17.73;;
7729;SDS011;3908;52.310;7.230;2022-12-22T09:20:14;33.43;;;15.87;;
7729;SDS011;3908;52.310;7.230;2022-12-22T09:23:01;37.50;;;19.87;;
7729;SDS011;3908;52.310;7.230;2022-12-22T09:25:49;27.13;;;15.33;;
7729;SDS011;3908;52.310;7.230;2022-12-22T09:28:36;36.33;;;19.20;;
7729;SDS011;3908;52.310;7.230;2022-12-22T09:31:25;35.67;;;14.90;;
7729;SDS011;3908;52.310;7.230;2022-12-22T09:34:13;27.70;;;15.37;;
7729;SDS011;3908;52.310;7.230;2022-12-22T09:37:00;31.50;;;15.40;;
7729;SDS011;3908;52.310;7.230;2022-12-22T09:39:47;38.43;;;18.30;;
7729;SDS011;3908;52.310;7.230;2022-12-22T09:42:36;34.03;;;18.07;;
7729;SDS011;3908;52.310;7.230;2022-12-22T09:45:26;42.27;;;22.07;;
7729;SDS011;3908;52.310;7.230;2022-12-22T09:48:15;33.17;;;17.30;;
7729;SDS011;3908;52.310;7.230;2022-12-22T09:51:02;35.93;;;15.63;;
7729;SDS011;3908;52.310;7.230;2022-12-22T09:53:51;32.03;;;17.17;;
7729;SDS011;3908;52.310;7.230;2022-12-22T09:56:43;39.37;;;20.27;;
7729;SDS011;3908;52.310;7.230;2022-12-22T09:59:32;32.37;;;17.70;;
7729;SDS011;3908;52.310;7.230;2022-12-22T10:02:22;32.10;;;15.97;;
7729;SDS011;3908;52.310;7.230;2022-12-22T10:05:16;34.67;;;17.10;;
7729;SDS011;3908;52.310;7.230;2022-12-22T10:08:13;29.67;;;14.70;;
7729;SDS011;3908;52.310;7.230;2022-12-22T10:11:04;28.03;;;15.00;;
7729;SDS011;3908;52.310;7.230;2022-12-22T10:13:52;33.17;;;16.27;;
7729;SDS011;3908;52.310;7.230;2022-12-22T10:16:40;32.27;;;15.20;;
7729;SDS011;3908;52.310;7.230;2022-12-22T10:19:27;33.50;;;16.10;;
7729;SDS011;3908;52.310;7.230;2022-12-22T10:22:19;33.80;;;16.60;;
7729;SDS011;3908;52.310;7.230;2022-12-22T10:25:23;32.50;;;16.47;;
7729;SDS011;3908;52.310;7.230;2022-12-22T10:28:16;32.67;;;15.33;;
7729;SDS011;3908;52.310;7.230;2022-12-22T10:31:12;28.07;;;15.17;;
7729;SDS011;3908;52.310;7.230;2022-12-22T10:34:12;31.20;;;15.57;;
7729;SDS011;3908;52.310;7.230;2022-12-22T10:37:01;32.00;;;15.43;;
7729;SDS011;3908;52.310;7.230;2022-12-22T10:39:50;28.90;;;13.73;;
7729;SDS011;3908;52.310;7.230;2022-12-22T10:42:37;28.13;;;14.40;;
7729;SDS011;3908;52.310;7.230;2022-12-22T10:45:29;29.07;;;13.70;;
7729;SDS011;3908;52.310;7.230;2022-12-22T10:48:24;30.33;;;13.67;;
7729;SDS011;3908;52.310;7.230;2022-12-22T10:51:14;27.93;;;13.60;;
7729;SDS011;3908;52.310;7.230;2022-12-22T10:54:01;33.10;;;14.83;;
7729;SDS011;3908;52.310;7.230;2022-12-22T10:56:50;27.73;;;13.63;;
7729;SDS011;3908;52.310;7.230;2022-12-22T10:59:46;28.97;;;13.80;;
7729;SDS011;3908;52.310;7.230;2022-12-22T11:02:36;30.67;;;13.97;;
7729;SDS011;3908;52.310;7.230;2022-12-22T11:05:23;31.03;;;15.37;;
7729;SDS011;3908;52.310;7.230;2022-12-22T11:08:14;33.83;;;15.70;;
7729;SDS011;3908;52.310;7.230;2022-12-22T11:11:04;30.87;;;14.73;;
7729;SDS011;3908;52.310;7.230;2022-12-22T11:13:57;26.63;;;14.43;;
7729;SDS011;3908;52.310;7.230;2022-12-22T11:16:52;29.90;;;14.60;;
7729;SDS011;3908;52.310;7.230;2022-12-22T11:19:53;29.67;;;15.47;;
7729;SDS011;3908;52.310;7.230;2022-12-22T11:22:48;30.67;;;14.07;;
7729;SDS011;3908;52.310;7.230;2022-12-22T11:25:47;31.23;;;13.00;;
7729;SDS011;3908;52.310;7.230;2022-12-22T11:28:47;32.27;;;13.50;;
7729;SDS011;3908;52.310;7.230;2022-12-22T11:31:46;28.27;;;13.80;;
7729;SDS011;3908;52.310;7.230;2022-12-22T11:34:46;29.63;;;12.33;;
7729;SDS011;3908;52.310;7.230;2022-12-22T11:37:46;25.70;;;11.67;;
7729;SDS011;3908;52.310;7.230;2022-12-22T11:40:37;28.27;;;12.10;;
7729;SDS011;3908;52.310;7.230;2022-12-22T11:43:31;26.17;;;12.03;;
7729;SDS011;3908;52.310;7.230;2022-12-22T11:46:33;25.60;;;12.23;;
7729;SDS011;3908;52.310;7.230;2022-12-22T11:52:56;25.00;;;12.00;;
7729;SDS011;3908;52.310;7.230;2022-12-22T11:55:55;21.90;;;10.30;;
7729;SDS011;3908;52.310;7.230;2022-12-22T11:58:57;20.87;;;8.90;;
7729;SDS011;3908;52.310;7.230;2022-12-22T12:08:46;17.60;;;9.17;;
7729;SDS011;3908;52.310;7.230;2022-12-22T12:11:46;20.47;;;8.40;;
7729;SDS011;3908;52.310;7.230;2022-12-22T12:14:44;17.27;;;9.07;;
7729;SDS011;3908;52.310;7.230;2022-12-22T12:17:42;19.47;;;8.47;;
7729;SDS011;3908;52.310;7.230;2022-12-22T12:20:43;17.63;;;7.80;;
7729;SDS011;3908;52.310;7.230;2022-12-22T12:23:42;17.90;;;7.83;;
7729;SDS011;3908;52.310;7.230;2022-12-22T12:26:43;17.10;;;8.03;;
7729;SDS011;3908;52.310;7.230;2022-12-22T12:29:40;16.03;;;8.30;;
7729;SDS011;3908;52.310;7.230;2022-12-22T12:32:37;19.83;;;8.73;;
7729;SDS011;3908;52.310;7.230;2022-12-22T12:35:34;21.83;;;9.03;;
7729;SDS011;3908;52.310;7.230;2022-12-22T12:38:35;21.47;;;8.60;;
7729;SDS011;3908;52.310;7.230;2022-12-22T12:41:29;17.43;;;8.60;;
7729;SDS011;3908;52.310;7.230;2022-12-22T12:44:24;15.43;;;8.10;;
7729;SDS011;3908;52.310;7.230;2022-12-22T12:47:22;16.50;;;9.20;;
7729;SDS011;3908;52.310;7.230;2022-12-22T12:53:19;15.57;;;8.53;;
7729;SDS011;3908;52.310;7.230;2022-12-22T12:56:07;21.77;;;9.13;;
7729;SDS011;3908;52.310;7.230;2022-12-22T13:02:36;20.23;;;7.70;;
7729;SDS011;3908;52.310;7.230;2022-12-22T13:05:28;19.50;;;7.77;;
7729;SDS011;3908;52.310;7.230;2022-12-22T13:08:18;16.37;;;8.07;;
7729;SDS011;3908;52.310;7.230;2022-12-22T13:11:17;17.53;;;8.43;;
7729;SDS011;3908;52.310;7.230;2022-12-22T13:14:05;15.83;;;8.17;;
7729;SDS011;3908;52.310;7.230;2022-12-22T13:16:53;14.10;;;7.93;;
7729;SDS011;3908;52.310;7.230;2022-12-22T13:20:20;16.70;;;7.70;;
7729;SDS011;3908;52.310;7.230;2022-12-22T13:23:11;15.67;;;7.03;;
7729;SDS011;3908;52.310;7.230;2022-12-22T13:26:04;14.23;;;6.93;;
7729;SDS011;3908;52.310;7.230;2022-12-22T13:28:53;13.90;;;7.07;;
7729;SDS011;3908;52.310;7.230;2022-12-22T13:31:43;23.50;;;7.90;;
7729;SDS011;3908;52.310;7.230;2022-12-22T13:34:38;15.83;;;6.97;;
7729;SDS011;3908;52.310;7.230;2022-12-22T13:37:37;12.73;;;6.83;;
7729;SDS011;3908;52.310;7.230;2022-12-22T13:40:26;13.30;;;5.93;;
7729;SDS011;3908;52.310;7.230;2022-12-22T13:43:15;13.50;;;5.60;;
7729;SDS011;3908;52.310;7.230;2022-12-22T13:46:05;11.87;;;6.33;;
7729;SDS011;3908;52.310;7.230;2022-12-22T13:48:54;12.03;;;5.93;;
7729;SDS011;3908;52.310;7.230;2022-12-22T13:51:45;12.13;;;5.60;;
7729;SDS011;3908;52.310;7.230;2022-12-22T13:54:35;12.13;;;5.10;;
7729;SDS011;3908;52.310;7.230;2022-12-22T13:57:23;16.47;;;5.50;;
7729;SDS011;3908;52.310;7.230;2022-12-22T14:00:17;10.60;;;5.47;;
7729;SDS011;3908;52.310;7.230;2022-12-22T14:03:11;10.60;;;5.43;;
7729;SDS011;3908;52.310;7.230;2022-12-22T14:06:05;9.53;;;5.30;;
7729;SDS011;3908;52.310;7.230;2022-12-22T14:09:11;11.30;;;5.13;;
7729;SDS011;3908;52.310;7.230;2022-12-22T14:12:05;13.30;;;5.37;;
7729;SDS011;3908;52.310;7.230;2022-12-22T14:14:58;13.90;;;5.53;;
7729;SDS011;3908;52.310;7.230;2022-12-22T14:17:47;10.10;;;5.33;;
7729;SDS011;3908;52.310;7.230;2022-12-22T14:20:35;12.07;;;5.43;;
7729;SDS011;3908;52.310;7.230;2022-12-22T14:23:25;13.03;;;5.13;;
7729;SDS011;3908;52.310;7.230;2022-12-22T14:26:16;13.97;;;5.70;;
7729;SDS011;3908;52.310;7.230;2022-12-22T14:29:13;11.87;;;5.10;;
7729;SDS011;3908;52.310;7.230;2022-12-22T14:32:04;12.37;;;5.40;;
7729;SDS011;3908;52.310;7.230;2022-12-22T14:34:51;8.60;;;4.43;;
7729;SDS011;3908;52.310;7.230;2022-12-22T14:37:39;15.27;;;5.63;;
7729;SDS011;3908;52.310;7.230;2022-12-22T14:40:27;13.97;;;6.07;;
7729;SDS011;3908;52.310;7.230;2022-12-22T14:43:37;15.27;;;5.90;;
7729;SDS011;3908;52.310;7.230;2022-12-22T14:46:25;17.73;;;5.63;;
7729;SDS011;3908;52.310;7.230;2022-12-22T14:49:13;14.33;;;5.70;;
7729;SDS011;3908;52.310;7.230;2022-12-22T14:52:03;16.60;;;6.97;;
7729;SDS011;3908;52.310;7.230;2022-12-22T14:54:53;18.47;;;6.50;;
7729;SDS011;3908;52.310;7.230;2022-12-22T14:57:41;15.60;;;6.23;;
7729;SDS011;3908;52.310;7.230;2022-12-22T15:00:30;16.37;;;5.73;;
7729;SDS011;3908;52.310;7.230;2022-12-22T15:03:26;12.90;;;7.50;;
7729;SDS011;3908;52.310;7.230;2022-12-22T15:06:20;16.20;;;7.57;;
7729;SDS011;3908;52.310;7.230;2022-12-22T15:09:24;17.07;;;7.43;;
7729;SDS011;3908;52.310;7.230;2022-12-22T15:12:16;17.80;;;8.03;;
7729;SDS011;3908;52.310;7.230;2022-12-22T15:15:04;19.20;;;9.40;;
7729;SDS011;3908;52.310;7.230;2022-12-22T15:17:58;19.80;;;9.77;;
7729;SDS011;3908;52.310;7.230;2022-12-22T15:20:47;22.30;;;9.80;;
7729;SDS011;3908;52.310;7.230;2022-12-22T15:23:34;22.60;;;9.50;;
7729;SDS011;3908;52.310;7.230;2022-12-22T15:26:21;19.67;;;8.90;;
7729;SDS011;3908;52.310;7.230;2022-12-22T15:29:08;23.00;;;10.30;;
7729;SDS011;3908;52.310;7.230;2022-12-22T15:31:55;18.60;;;9.70;;
7729;SDS011;3908;52.310;7.230;2022-12-22T15:34:42;21.77;;;10.13;;
7729;SDS011;3908;52.310;7.230;2022-12-22T15:37:30;21.57;;;11.33;;
7729;SDS011;3908;52.310;7.230;2022-12-22T15:40:18;23.93;;;10.43;;
7729;SDS011;3908;52.310;7.230;2022-12-22T15:43:06;25.50;;;11.60;;
7729;SDS011;3908;52.310;7.230;2022-12-22T15:45:53;22.63;;;11.10;;
7729;SDS011;3908;52.310;7.230;2022-12-22T15:48:40;23.70;;;11.57;;
7729;SDS011;3908;52.310;7.230;2022-12-22T15:51:29;21.07;;;12.23;;
7729;SDS011;3908;52.310;7.230;2022-12-22T15:54:19;21.47;;;11.90;;
7729;SDS011;3908;52.310;7.230;2022-12-22T15:57:08;26.10;;;11.50;;
7729;SDS011;3908;52.310;7.230;2022-12-22T15:59:58;22.87;;;11.53;;
7729;SDS011;3908;52.310;7.230;2022-12-22T16:02:45;27.07;;;13.00;;
7729;SDS011;3908;52.310;7.230;2022-12-22T16:05:32;23.57;;;12.50;;
7729;SDS011;3908;52.310;7.230;2022-12-22T16:08:21;23.23;;;11.97;;
7729;SDS011;3908;52.310;7.230;2022-12-22T16:11:14;24.00;;;13.00;;
7729;SDS011;3908;52.310;7.230;2022-12-22T16:14:01;24.40;;;13.93;;
7729;SDS011;3908;52.310;7.230;2022-12-22T16:16:48;22.60;;;12.83;;
7729;SDS011;3908;52.310;7.230;2022-12-22T16:19:36;28.97;;;15.60;;
7729;SDS011;3908;52.310;7.230;2022-12-22T16:22:25;30.07;;;15.40;;
7729;SDS011;3908;52.310;7.230;2022-12-22T16:25:19;29.20;;;14.90;;
7729;SDS011;3908;52.310;7.230;2022-12-22T16:28:10;29.47;;;14.83;;
7729;SDS011;3908;52.310;7.230;2022-12-22T16:31:01;30.87;;;14.87;;
7729;SDS011;3908;52.310;7.230;2022-12-22T16:33:48;29.37;;;14.00;;
7729;SDS011;3908;52.310;7.230;2022-12-22T16:36:35;29.20;;;13.60;;
7729;SDS011;3908;52.310;7.230;2022-12-22T16:39:22;24.57;;;13.77;;
7729;SDS011;3908;52.310;7.230;2022-12-22T16:42:09;21.23;;;13.63;;
7729;SDS011;3908;52.310;7.230;2022-12-22T16:45:00;30.80;;;15.00;;
7729;SDS011;3908;52.310;7.230;2022-12-22T16:47:49;27.20;;;15.73;;
7729;SDS011;3908;52.310;7.230;2022-12-22T16:50:37;23.63;;;13.77;;
7729;SDS011;3908;52.310;7.230;2022-12-22T16:53:24;27.53;;;14.83;;
7729;SDS011;3908;52.310;7.230;2022-12-22T16:56:13;32.60;;;15.97;;
7729;SDS011;3908;52.310;7.230;2022-12-22T16:59:03;26.50;;;15.03;;
7729;SDS011;3908;52.310;7.230;2022-12-22T17:01:51;30.53;;;14.63;;
7729;SDS011;3908;52.310;7.230;2022-12-22T17:04:41;26.80;;;15.30;;
7729;SDS011;3908;52.310;7.230;2022-12-22T17:15:01;30.37;;;16.77;;
7729;SDS011;3908;52.310;7.230;2022-12-22T17:17:50;30.33;;;17.23;;
7729;SDS011;3908;52.310;7.230;2022-12-22T17:20:37;29.00;;;16.50;;
7729;SDS011;3908;52.310;7.230;2022-12-22T17:23:28;33.07;;;16.43;;
7729;SDS011;3908;52.310;7.230;2022-12-22T17:26:18;32.07;;;16.63;;
7729;SDS011;3908;52.310;7.230;2022-12-22T17:29:10;30.80;;;17.00;;
7729;SDS011;3908;52.310;7.230;2022-12-22T17:31:59;30.40;;;16.87;;
7729;SDS011;3908;52.310;7.230;2022-12-22T17:34:48;34.53;;;16.70;;
7729;SDS011;3908;52.310;7.230;2022-12-22T17:37:35;28.67;;;17.10;;
7729;SDS011;3908;52.310;7.230;2022-12-22T17:40:22;34.30;;;17.00;;
7729;SDS011;3908;52.310;7.230;2022-12-22T17:43:11;30.97;;;16.93;;
7729;SDS011;3908;52.310;7.230;2022-12-22T17:45:59;38.50;;;17.17;;
7729;SDS011;3908;52.310;7.230;2022-12-22T17:48:47;27.33;;;16.70;;
7729;SDS011;3908;52.310;7.230;2022-12-22T17:51:36;29.27;;;16.70;;
7729;SDS011;3908;52.310;7.230;2022-12-22T17:54:24;32.30;;;17.23;;
7729;SDS011;3908;52.310;7.230;2022-12-22T17:57:13;32.17;;;17.93;;